Time;durP1;ratioP1;P1;durP2;ratioP2;P2;SDS_P1;SDS_P2;PMS_P1;PMS_P2;Temp;Humidity;BMP_temperature;BMP_pressure;BME280_temperature;BME280_humidity;BME280_pressure;Samples;Min_cycle;Max_cycle;Signal;HPM_P1;HPM_P2
2022/08/01 00:01:19;;;;;;;4.17;3.03;;;;;;;20.64;100.00;63013.81;5081845;28;20195;-76
2022/08/01 00:03:46;;;;;;;5.80;4.30;;;;;;;20.58;100.00;63007.34;5075151;28;20196;-76
2022/08/01 00:06:13;;;;;;;5.00;4.40;;;;;;;20.09;100.00;62954.31;5072668;28;20222;-75
2022/08/01 00:08:41;;;;;;;7.10;4.97;;;;;;;20.05;100.00;62944.81;5091487;28;20279;-76
2022/08/01 00:11:09;;;;;;;5.83;4.93;;;;;;;19.92;100.00;62936.47;5072062;28;20211;-75
2022/08/01 00:13:37;;;;;;;6.00;5.40;;;;;;;19.61;100.00;62899.84;5085402;28;20227;-75
2022/08/01 00:16:04;;;;;;;7.83;6.00;;;;;;;19.18;100.00;62857.03;5091522;28;20196;-75
2022/08/01 00:18:31;;;;;;;6.40;5.90;;;;;;;19.04;100.00;62836.19;5090871;28;20204;-75
2022/08/01 00:20:58;;;;;;;7.27;6.47;;;;;;;19.16;100.00;62849.69;5091316;28;20188;-74
2022/08/01 00:23:25;;;;;;;6.73;5.73;;;;;;;18.54;100.00;62787.91;5090782;28;20226;-75
2022/08/01 00:25:54;;;;;;;7.07;6.20;;;;;;;18.68;100.00;62803.03;5091597;28;20192;-75
2022/08/01 00:28:22;;;;;;;6.53;5.93;;;;;;;18.33;100.00;62757.50;5091272;28;20561;-76
2022/08/01 00:30:49;;;;;;;7.33;6.73;;;;;;;18.08;100.00;62738.78;5091646;28;20226;-75
2022/08/01 00:33:16;;;;;;;7.50;6.57;;;;;;;18.36;100.00;62766.44;5091216;28;20736;-74
2022/08/01 00:35:43;;;;;;;7.07;6.30;;;;;;;18.36;100.00;62766.44;5094432;28;20691;-76
2022/08/01 00:38:11;;;;;;;10.50;6.30;;;;;;;18.37;100.00;62769.56;5082034;28;20204;-75
2022/08/01 00:40:38;;;;;;;6.87;6.23;;;;;;;18.47;100.00;62780.88;5071499;28;20285;-76
2022/08/01 00:43:05;;;;;;;7.03;6.33;;;;;;;18.27;100.00;62754.13;5089013;28;20200;-74
2022/08/01 00:45:34;;;;;;;7.00;6.30;;;;;;;18.47;100.00;62780.38;5091797;28;20566;-77
2022/08/01 00:48:01;;;;;;;6.67;6.07;;;;;;;18.38;100.00;62768.03;5090936;28;20196;-76
2022/08/01 00:50:29;;;;;;;10.77;6.57;;;;;;;18.44;100.00;62774.53;5091409;28;20196;-74
2022/08/01 00:52:56;;;;;;;8.83;5.80;;;;;;;18.48;100.00;62779.41;5072055;28;20216;-75
2022/08/01 00:55:24;;;;;;;7.30;6.17;;;;;;;18.45;100.00;62778.22;5074819;28;20195;-74
2022/08/01 00:57:51;;;;;;;8.70;5.80;;;;;;;18.47;100.00;62780.38;5091274;28;20245;-77
2022/08/01 01:00:18;;;;;;;6.23;5.63;;;;;;;18.40;100.00;62767.63;5077302;28;20294;-75
2022/08/01 01:02:49;;;;;;;8.43;5.60;;;;;;;18.49;100.00;62782.53;5071648;28;20659;-75
2022/08/01 01:05:16;;;;;;;6.13;5.27;;;;;;;18.18;100.00;62743.88;5071474;28;20203;-76
2022/08/01 01:07:51;;;;;;;6.10;5.50;;;;;;;18.20;100.00;62746.56;5071091;28;20261;-74
2022/08/01 01:10:24;;;;;;;5.53;5.00;;;;;;;18.13;100.00;62748.81;5071268;28;20203;-75
2022/08/01 01:12:56;;;;;;;5.67;5.13;;;;;;;18.73;100.00;62803.28;5083058;28;20285;-76
2022/08/01 01:15:31;;;;;;;6.10;5.10;;;;;;;18.80;100.00;62810.81;5085019;28;20196;-75
2022/08/01 01:18:08;;;;;;;23.03;6.20;;;;;;;18.68;100.00;62803.03;5083900;28;20237;-77
2022/08/01 01:20:39;;;;;;;8.17;5.23;;;;;;;18.92;100.00;62828.41;5077639;28;20199;-74
2022/08/01 01:23:28;;;;;;;6.03;5.43;;;;;;;18.78;100.00;62808.66;5079146;28;20227;-77
2022/08/01 01:26:27;;;;;;;7.50;5.30;;;;;;;18.69;100.00;62798.41;5059889;28;20554;-77
2022/08/01 01:29:09;;;;;;;5.47;4.97;;;;;;;18.76;100.00;62805.97;5090971;28;20278;-75
2022/08/01 01:31:42;;;;;;;6.23;5.37;;;;;;;18.17;100.00;62747.97;5090633;28;20227;-75
2022/08/01 01:34:12;;;;;;;6.07;5.30;;;;;;;18.55;100.00;62786.41;5077890;28;20204;-77
2022/08/01 01:36:40;;;;;;;7.07;6.00;;;;;;;17.51;100.00;62677.81;5081230;28;20192;-76
2022/08/01 01:39:09;;;;;;;7.47;6.50;;;;;;;18.44;100.00;62777.66;5073974;28;20208;-77
2022/08/01 01:41:39;;;;;;;6.80;6.10;;;;;;;17.70;100.00;62698.31;5091440;28;20195;-77
2022/08/01 01:44:11;;;;;;;7.17;6.47;;;;;;;17.89;100.00;62713.13;5090748;28;20274;-74
2022/08/01 01:46:41;;;;;;;7.53;6.73;;;;;;;17.89;100.00;62712.59;5090730;28;20196;-76
2022/08/01 01:49:10;;;;;;;11.47;6.63;;;;;;;18.18;100.00;62743.88;5087179;28;20196;-74
2022/08/01 01:51:41;;;;;;;6.93;6.10;;;;;;;18.30;100.00;62756.81;5070726;28;20196;-78
2022/08/01 01:54:11;;;;;;;7.10;6.40;;;;;;;18.34;100.00;62761.69;5071348;28;20559;-76
2022/08/01 01:56:49;;;;;;;8.50;6.37;;;;;;;18.33;100.00;62758.00;5071038;28;20310;-76
2022/08/01 01:59:20;;;;;;;8.13;6.07;;;;;;;18.23;100.00;62751.84;5070833;28;20577;-77
2022/08/01 02:01:50;;;;;;;6.93;6.27;;;;;;;18.27;100.00;62758.75;5083203;28;20199;-77
2022/08/01 02:04:19;;;;;;;7.53;5.80;;;;;;;18.26;100.00;62755.63;5074605;28;20196;-75
2022/08/01 02:06:48;;;;;;;7.13;6.40;;;;;;;18.24;100.00;62755.50;5084741;28;20200;-77
2022/08/01 02:09:18;;;;;;;11.53;6.83;;;;;;;18.21;100.00;62749.69;5082713;28;20203;-75
2022/08/01 02:11:46;;;;;;;6.83;6.17;;;;;;;18.16;100.00;62742.25;5074720;28;20218;-76
2022/08/01 02:14:15;;;;;;;8.67;6.37;;;;;;;18.15;100.00;62740.66;5079087;28;20205;-74
2022/08/01 02:16:48;;;;;;;6.50;5.90;;;;;;;18.23;100.00;62754.97;5074366;28;20197;-75
2022/08/01 02:19:15;;;;;;;6.20;5.60;;;;;;;18.32;100.00;62761.56;5076804;28;20200;-75
2022/08/01 02:21:48;;;;;;;8.03;6.00;;;;;;;18.12;100.00;62737.94;5084752;28;20277;-76
2022/08/01 02:24:23;;;;;;;6.10;5.43;;;;;;;18.28;100.00;62760.38;5085054;28;20222;-75
2022/08/01 02:26:54;;;;;;;8.87;5.67;;;;;;;18.27;100.00;62756.19;5074300;28;20202;-75
2022/08/01 02:29:25;;;;;;;13.53;5.43;;;;;;;18.17;100.00;62745.38;5074533;28;20207;-75
2022/08/01 02:31:55;;;;;;;5.43;4.90;;;;;;;18.12;100.00;62737.41;5074541;28;20232;-77
2022/08/01 02:34:24;;;;;;;6.23;4.50;;;;;;;18.02;100.00;62726.59;5078487;28;20646;-73
2022/08/01 02:36:54;;;;;;;6.73;4.50;;;;;;;18.08;100.00;62736.19;5078080;28;20566;-76
2022/08/01 02:39:25;;;;;;;7.23;4.43;;;;;;;17.91;100.00;62717.84;5074338;28;20215;-75
2022/08/01 02:42:00;;;;;;;6.33;4.60;;;;;;;18.04;100.00;62731.88;5073888;28;20192;-75
2022/08/01 02:44:32;;;;;;;9.63;5.00;;;;;;;17.89;100.00;62713.13;5074368;28;20196;-76
2022/08/01 02:47:03;;;;;;;5.93;5.30;;;;;;;17.67;100.00;62689.94;5074038;28;20192;-75
2022/08/01 02:49:34;;;;;;;10.47;5.50;;;;;;;17.59;100.00;62681.28;5075621;28;20285;-75
2022/08/01 02:52:04;;;;;;;7.97;5.80;;;;;;;17.46;100.00;62667.25;5093831;28;20252;-75
2022/08/01 02:54:33;;;;;;;10.20;5.83;;;;;;;17.49;100.00;62672.53;5093219;28;20192;-75
2022/08/01 02:57:03;;;;;;;10.40;5.67;;;;;;;17.24;100.00;62643.00;5093576;28;20306;-75
2022/08/01 02:59:32;;;;;;;8.67;6.60;;;;;;;17.46;100.00;62667.25;5093300;28;20207;-75
2022/08/01 03:02:04;;;;;;;15.40;6.63;;;;;;;16.62;100.00;62576.72;5093331;28;20191;-76
2022/08/01 03:04:35;;;;;;;8.37;6.20;;;;;;;17.70;100.00;62698.31;5093220;28;20431;-76
2022/08/01 03:07:05;;;;;;;9.00;6.47;;;;;;;17.56;100.00;62678.06;5092636;28;20658;-74
2022/08/01 03:09:38;;;;;;;7.40;6.27;;;;;;;17.60;100.00;62682.38;5079325;28;20268;-76
2022/08/01 03:12:11;;;;;;;9.20;6.73;;;;;;;17.26;100.00;62650.84;5081107;28;20234;-75
2022/08/01 03:14:41;;;;;;;9.60;6.57;;;;;;;17.51;100.00;62675.25;5091267;28;20203;-77
2022/08/01 03:17:12;;;;;;;8.40;6.37;;;;;;;17.54;100.00;62675.91;5073464;28;20196;-76
2022/08/01 03:19:40;;;;;;;18.57;7.47;;;;;;;17.19;100.00;62632.44;5073557;28;20291;-75
2022/08/01 03:22:09;;;;;;;25.87;7.57;;;;;;;17.51;100.00;62672.66;5083296;28;20654;-77
2022/08/01 03:24:39;;;;;;;16.43;7.33;;;;;;;17.49;100.00;62670.50;5076220;27;20223;-76
2022/08/01 03:27:07;;;;;;;13.67;7.00;;;;;;;17.18;100.00;62646.81;5073036;28;20196;-74
2022/08/01 03:29:37;;;;;;;14.73;7.90;;;;;;;17.21;100.00;62637.72;5072820;28;20204;-76
2022/08/01 03:32:05;;;;;;;17.50;7.43;;;;;;;17.28;100.00;62653.00;5072960;28;20230;-76
2022/08/01 03:34:34;;;;;;;12.23;7.60;;;;;;;16.85;100.00;62601.50;5072592;28;20572;-76
2022/08/01 03:37:06;;;;;;;22.90;9.17;;;;;;;17.49;100.00;62675.66;5072007;28;20192;-75
2022/08/01 03:39:38;;;;;;;17.17;7.80;;;;;;;16.94;100.00;62603.47;5060053;28;20192;-76
2022/08/01 03:42:13;;;;;;;9.10;6.63;;;;;;;16.92;100.00;62609.03;5073035;28;20200;-77
2022/08/01 03:44:42;;;;;;;12.87;6.37;;;;;;;17.22;100.00;62643.97;5073231;28;20195;-76
2022/08/01 03:47:12;;;;;;;20.93;7.93;;;;;;;17.25;100.00;62641.50;5073249;28;20209;-76
2022/08/01 03:49:45;;;;;;;8.80;6.73;;;;;;;17.33;100.00;62653.22;5083677;28;20283;-77
2022/08/01 03:52:14;;;;;;;9.90;6.03;;;;;;;17.38;100.00;62660.66;5072036;28;20204;-77
2022/08/01 03:54:47;;;;;;;10.83;6.17;;;;;;;17.23;100.00;62642.44;5075156;28;20220;-77
2022/08/01 03:57:15;;;;;;;9.40;4.50;;;;;;;17.36;100.00;62655.94;5082174;28;20198;-76
2022/08/01 03:59:44;;;;;;;11.13;4.20;;;;;;;16.68;100.00;62588.31;5075620;28;20274;-76
2022/08/01 04:02:16;;;;;;;8.40;4.17;;;;;;;17.35;100.00;62655.41;5072298;28;20266;-75
2022/08/01 04:04:46;;;;;;;8.37;4.13;;;;;;;17.43;100.00;62664.03;5072534;28;20659;-75
2022/08/01 04:07:24;;;;;;;7.60;3.77;;;;;;;17.49;100.00;62673.09;5072449;28;20200;-76
2022/08/01 04:09:51;;;;;;;9.60;4.27;;;;;;;17.60;100.00;62687.53;5059436;28;20275;-76
2022/08/01 04:12:19;;;;;;;8.63;4.00;;;;;;;17.66;100.00;62688.84;5072195;28;20200;-76
2022/08/01 04:14:46;;;;;;;17.63;5.27;;;;;;;17.65;100.00;62687.78;5076970;28;20661;-75
2022/08/01 04:17:15;;;;;;;10.50;5.57;;;;;;;17.12;100.00;62633.19;5079180;28;20201;-75
2022/08/01 04:19:42;;;;;;;13.03;5.77;;;;;;;17.88;100.00;62712.03;5071881;28;20564;-75
2022/08/01 04:22:14;;;;;;;11.20;6.03;;;;;;;18.01;100.00;62728.13;5072259;28;20204;-76
2022/08/01 04:24:42;;;;;;;19.10;5.90;;;;;;;18.14;100.00;62742.13;5059792;28;20697;-76
2022/08/01 04:27:14;;;;;;;10.07;5.83;;;;;;;18.19;100.00;62744.97;5072268;28;20253;-76
2022/08/01 04:29:43;;;;;;;7.50;5.60;;;;;;;18.31;100.00;62758.44;5072251;28;20570;-77
2022/08/01 04:32:13;;;;;;;7.83;5.47;;;;;;;18.52;100.00;62783.72;5072274;28;20616;-75
2022/08/01 04:34:46;;;;;;;7.27;5.60;;;;;;;18.51;100.00;62779.53;5082610;28;20682;-76
2022/08/01 04:37:17;;;;;;;9.27;5.13;;;;;;;18.67;100.00;62799.38;5071979;28;20294;-76
2022/08/01 04:39:46;;;;;;;9.23;5.30;;;;;;;18.72;100.00;62801.63;5072263;28;20200;-76
2022/08/01 04:42:18;;;;;;;9.77;5.30;;;;;;;18.91;100.00;62827.88;5071727;28;20199;-77
2022/08/01 04:44:46;;;;;;;13.63;5.40;;;;;;;19.14;100.00;62847.00;5071643;28;20199;-76
2022/08/01 04:47:13;;;;;;;9.73;5.20;;;;;;;18.98;100.00;62830.25;5071407;28;20596;-75
2022/08/01 04:49:42;;;;;;;7.77;6.10;;;;;;;19.69;100.00;62905.91;5071582;28;20303;-76
2022/08/01 04:52:10;;;;;;;13.67;5.53;;;;;;;19.58;100.00;62896.63;5071491;28;20196;-75
2022/08/01 04:54:39;;;;;;;11.90;5.40;;;;;;;19.78;100.00;62915.66;5071493;28;20227;-76
2022/08/01 04:57:07;;;;;;;10.03;5.47;;;;;;;19.92;100.00;62935.94;5075236;28;20199;-76
2022/08/01 04:59:46;;;;;;;7.90;5.67;;;;;;;19.99;100.00;62935.75;5091553;28;20629;-74
2022/08/01 05:02:14;;;;;;;9.13;5.47;;;;;;;19.90;100.00;62933.78;5091107;28;20318;-75
2022/08/01 05:04:43;;;;;;;11.37;5.43;;;;;;;20.26;100.00;62972.72;5077579;28;20196;-76
2022/08/01 05:07:11;;;;;;;14.80;5.90;;;;;;;20.64;100.00;63008.66;5083143;28;20196;-75
2022/08/01 05:09:42;;;;;;;14.27;6.07;;;;;;;20.66;100.00;63005.63;5071327;28;20203;-76
2022/08/01 05:12:10;;;;;;;12.13;6.10;;;;;;;20.70;100.00;63020.31;5059111;28;20224;-76
2022/08/01 05:14:38;;;;;;;9.97;5.53;;;;;;;20.86;100.00;63032.44;5071150;28;20646;-76
2022/08/01 05:17:07;;;;;;;15.20;5.83;;;;;;;21.22;100.00;63072.91;5071118;28;20204;-77
2022/08/01 05:19:35;;;;;;;23.00;5.93;;;;;;;21.36;100.00;63082.88;5071568;28;20192;-76
2022/08/01 05:22:04;;;;;;;12.67;5.57;;;;;;;21.61;100.00;63109.97;5070940;28;20702;-76
2022/08/01 05:24:32;;;;;;;11.67;6.00;;;;;;;21.71;100.00;63123.38;5070708;28;20235;-75
2022/08/01 05:27:01;;;;;;;10.67;5.20;;;;;;;21.52;100.00;63108.00;5071057;28;20204;-75
2022/08/01 05:29:29;;;;;;;8.30;5.27;;;;;;;21.62;100.00;63118.81;5071290;28;20204;-76
2022/08/01 05:32:02;;;;;;;9.90;5.57;;;;;;;21.89;100.00;63142.91;5070895;28;20764;-75
2022/08/01 05:34:29;;;;;;;8.03;5.10;;;;;;;22.25;100.00;63181.88;5082115;28;20223;-75
2022/08/01 05:36:57;;;;;;;9.37;5.07;;;;;;;22.35;100.00;63192.72;5078092;28;20252;-74
2022/08/01 05:39:26;;;;;;;6.20;4.00;;;;;;;22.28;100.00;63185.13;5090498;28;20196;-77
2022/08/01 05:41:55;;;;;;;9.27;4.23;;;;;;;22.67;100.00;63226.84;5083234;28;20192;-77
2022/08/01 05:44:26;;;;;;;7.63;4.27;;;;;;;22.80;100.00;63245.59;5085973;28;20253;-75
2022/08/01 05:46:53;;;;;;;10.37;4.63;;;;;;;22.91;100.00;63254.91;5089741;28;20195;-76
2022/08/01 05:49:21;;;;;;;9.27;4.07;;;;;;;22.94;100.00;63256.09;5090148;28;20198;-76
2022/08/01 05:51:49;;;;;;;9.80;4.33;;;;;;;23.30;100.00;63294.59;5071210;28;20210;-75
2022/08/01 05:54:17;;;;;;;11.00;3.30;;;;;;;23.32;100.00;63291.59;5088030;28;20223;-75
2022/08/01 05:59:32;;;;;;;6.47;3.60;;;;;;;23.36;100.00;63301.13;5091681;28;20204;-76
2022/08/01 06:02:06;;;;;;;5.03;3.13;;;;;;;23.57;100.00;63323.91;5093303;28;20207;-76
2022/08/01 06:04:35;;;;;;;11.10;7.70;;;;;;;23.68;100.00;63341.03;5093302;28;20321;-76
2022/08/01 06:07:02;;;;;;;7.87;3.33;;;;;;;23.46;100.00;63312.50;5074427;28;20648;-75
2022/08/01 06:09:31;;;;;;;5.27;3.43;;;;;;;23.04;100.00;63266.41;5074174;28;20200;-77
2022/08/01 06:12:00;;;;;;;5.57;2.90;;;;;;;23.46;100.00;63312.50;5080022;28;20188;-75
2022/08/01 06:14:27;;;;;;;7.00;3.20;;;;;;;23.71;100.00;63344.28;5094228;28;20227;-75
2022/08/01 06:17:00;;;;;;;5.67;3.00;;;;;;;23.67;100.00;63339.94;5064481;28;20563;-76
2022/08/01 06:19:29;;;;;;;4.53;3.17;;;;;;;23.35;100.00;63300.59;5074715;28;20200;-74
2022/08/01 06:21:58;;;;;;;5.37;2.80;;;;;;;24.13;100.00;63384.66;5091563;28;20544;-75
2022/08/01 06:24:26;;;;;;;6.20;3.00;;;;;;;23.95;100.00;63364.56;5093110;28;20294;-74
2022/08/01 06:26:56;;;;;;;6.03;3.27;;;;;;;24.16;100.00;63390.53;5088187;28;20193;-76
2022/08/01 06:29:25;;;;;;;6.00;3.03;;;;;;;23.96;100.00;63366.22;5073051;28;20243;-77
2022/08/01 06:31:56;;;;;;;5.40;2.80;;;;;;;24.23;100.00;63392.38;5078354;28;20225;-75
2022/08/01 06:34:23;;;;;;;9.43;2.90;;;;;;;24.37;100.00;63407.56;5075207;28;20227;-76
2022/08/01 06:36:51;;;;;;;4.47;2.87;;;;;;;23.56;100.00;63322.28;5073917;28;20204;-77
2022/08/01 06:39:20;;;;;;;6.57;2.63;;;;;;;24.27;100.00;63399.31;5073849;28;20229;-76
2022/08/01 06:41:47;;;;;;;9.57;3.30;;;;;;;23.58;100.00;63325.00;5075358;28;20292;-75
2022/08/01 06:44:14;;;;;;;7.70;3.00;;;;;;;24.43;100.00;63419.28;5091329;28;20257;-76
2022/08/01 06:46:42;;;;;;;5.90;2.83;;;;;;;24.42;100.00;63415.03;5093914;28;20216;-77
2022/08/01 06:49:10;;;;;;;3.23;2.67;;;;;;;24.13;100.00;63384.66;5092995;27;20677;-76
2022/08/01 06:51:37;;;;;;;2.90;2.27;;;;;;;23.92;100.00;63361.31;5093219;28;20203;-75
2022/08/01 06:54:05;;;;;;;5.30;2.40;;;;;;;23.89;100.00;63358.59;5093262;28;20638;-76
2022/08/01 06:56:32;;;;;;;5.37;2.47;;;;;;;24.10;100.00;63383.47;5093203;28;20213;-76
2022/08/01 06:59:01;;;;;;;3.80;2.70;;;;;;;24.45;100.00;63418.31;5079698;28;20238;-74
2022/08/01 07:01:29;;;;;;;7.60;2.87;;;;;;;24.18;100.00;63389.56;5093228;28;20208;-77
2022/08/01 07:03:56;;;;;;;4.97;3.10;;;;;;;24.57;100.00;63434.47;5091728;28;20271;-76
2022/08/01 07:06:26;;;;;;;7.37;3.40;;;;;;;24.87;100.00;63463.94;5079472;28;20205;-75
2022/08/01 07:08:53;;;;;;;5.07;2.70;;;;;;;24.86;100.00;63460.22;5073187;28;20197;-75
2022/08/01 07:11:20;;;;;;;3.63;2.77;;;;;;;24.81;100.00;63462.63;5072726;28;20271;-75
2022/08/01 07:13:47;;;;;;;4.20;2.73;;;;;;;24.40;100.00;63405.06;5073123;28;20709;-75
2022/08/01 07:16:14;;;;;;;5.33;2.60;;;;;;;23.26;100.00;63290.28;5073039;28;20203;-75
2022/08/01 07:18:49;;;;;;;8.93;3.03;;;;;;;24.12;100.00;63386.19;5073183;28;20196;-77
2022/08/01 07:21:16;;;;;;;5.37;3.10;;;;;;;24.32;100.00;63404.75;5072970;28;20209;-74
2022/08/01 07:23:45;;;;;;;5.37;2.60;;;;;;;24.43;100.00;63410.94;5073085;28;20748;-75
2022/08/01 07:26:12;;;;;;;2.93;2.63;;;;;;;24.86;100.00;63465.44;5073190;28;20695;-76
2022/08/01 07:28:39;;;;;;;7.17;2.80;;;;;;;24.93;100.00;63470.97;5073387;28;20630;-76
2022/08/01 07:31:06;;;;;;;3.63;2.60;;;;;;;24.97;100.00;63475.31;5073434;28;20261;-76
2022/08/01 07:33:35;;;;;;;7.50;2.73;;;;;;;24.99;100.00;63476.97;5073434;28;20197;-74
2022/08/01 07:36:03;;;;;;;15.73;3.20;;;;;;;25.09;100.00;63488.34;5073617;28;20188;-76
2022/08/01 07:38:31;;;;;;;4.00;2.40;;;;;;;25.42;100.00;63518.44;5072923;28;20197;-77
2022/08/01 07:40:59;;;;;;;4.63;2.77;;;;;;;25.33;100.00;63508.66;5072437;28;20201;-74
2022/08/01 07:43:26;;;;;;;4.00;2.80;;;;;;;25.60;100.00;63543.22;5072641;28;20192;-76
2022/08/01 07:45:53;;;;;;;7.40;2.57;;;;;;;25.15;100.00;63494.84;5071486;28;20278;-76
2022/08/01 07:48:23;;;;;;;5.97;3.70;;;;;;;25.50;100.00;63532.34;5072919;28;20196;-75
2022/08/01 07:50:51;;;;;;;6.73;2.60;;;;;;;25.47;100.00;63529.09;5072430;28;20613;-76
2022/08/01 07:53:18;;;;;;;4.33;2.63;;;;;;;25.98;100.00;63586.03;5072997;28;20202;-75
2022/08/01 07:55:46;;;;;;;5.43;2.67;;;;;;;25.14;100.00;63493.22;5073149;28;20247;-75
2022/08/01 07:58:15;;;;;;;2.63;2.43;;;;;;;25.94;100.00;63579.63;5072886;28;20611;-75
2022/08/01 08:00:42;;;;;;;4.67;2.60;;;;;;;25.95;100.00;63581.25;5072904;28;20516;-76
2022/08/01 08:03:09;;;;;;;4.23;2.70;;;;;;;26.45;100.00;63634.53;5074170;28;20196;-75
2022/08/01 08:05:37;;;;;;;5.30;2.70;;;;;;;26.45;100.00;63635.06;5072810;28;20204;-75
2022/08/01 08:08:05;;;;;;;4.37;2.67;;;;;;;26.21;100.00;63609.00;5072496;28;20730;-74
2022/08/01 08:10:33;;;;;;;3.87;2.70;;;;;;;25.55;100.00;63535.19;5074647;28;20198;-76
2022/08/01 08:13:03;;;;;;;8.00;2.87;;;;;;;25.92;100.00;63580.59;5072123;28;20208;-76
2022/08/01 08:15:33;;;;;;;4.83;2.87;;;;;;;26.18;100.00;63605.19;5071990;28;20711;-77
2022/08/01 08:18:00;;;;;;;7.17;2.80;;;;;;;26.43;100.00;63632.34;5072160;28;20208;-75
2022/08/01 08:20:29;;;;;;;5.57;2.50;;;;;;;26.27;100.00;63614.97;5072088;28;20265;-75
2022/08/01 08:22:57;;;;;;;5.47;2.90;;;;;;;25.84;100.00;63569.28;5070926;28;20275;-75
2022/08/01 08:25:27;;;;;;;5.57;2.73;;;;;;;25.93;100.00;63579.09;5073522;28;20211;-75
2022/08/01 08:27:54;;;;;;;6.93;3.00;;;;;;;25.60;100.00;63540.06;5082569;28;20585;-76
2022/08/01 08:30:22;;;;;;;6.27;3.50;;;;;;;25.59;100.00;63542.16;5076134;28;20192;-75
2022/08/01 08:32:51;;;;;;;3.73;2.63;;;;;;;25.41;100.00;63527.81;5082918;28;20207;-76
2022/08/01 08:35:18;;;;;;;3.90;3.00;;;;;;;25.33;100.00;63513.88;5071552;28;20216;-76
2022/08/01 08:37:45;;;;;;;3.33;2.80;;;;;;;25.69;100.00;63552.47;5084441;28;20270;-76
2022/08/01 08:40:13;;;;;;;4.27;3.20;;;;;;;25.46;100.00;63530.63;5071728;28;20218;-76
2022/08/01 08:42:42;;;;;;;3.17;2.73;;;;;;;26.18;100.00;63608.34;5071008;28;20212;-74
2022/08/01 08:45:11;;;;;;;5.60;2.80;;;;;;;26.24;100.00;63611.72;5071313;28;20196;-75
2022/08/01 08:47:38;;;;;;;4.00;2.67;;;;;;;26.13;100.00;63597.13;5071069;28;20200;-76
2022/08/01 08:50:07;;;;;;;6.53;3.43;;;;;;;26.24;100.00;63611.72;5071189;28;20272;-76
2022/08/01 08:52:39;;;;;;;6.77;2.73;;;;;;;25.94;100.00;63580.16;5070986;28;20200;-75
2022/08/01 08:55:09;;;;;;;5.60;3.13;;;;;;;26.01;100.00;63587.22;5071238;28;20239;-76
2022/08/01 08:57:40;;;;;;;7.77;3.00;;;;;;;26.51;100.00;63638.44;5090640;28;20254;-76
2022/08/01 09:00:09;;;;;;;5.93;2.70;;;;;;;27.11;100.00;63703.72;5091217;28;20199;-76
2022/08/01 09:02:36;;;;;;;7.33;2.20;;;;;;;27.22;100.00;63720.38;5070714;28;20206;-73
2022/08/01 09:05:03;;;;;;;3.00;2.70;;;;;;;27.30;100.00;63729.63;5071401;28;20258;-75
2022/08/01 09:07:33;;;;;;;3.73;2.67;;;;;;;26.72;100.00;63663.91;5078854;28;20214;-76
2022/08/01 09:10:01;;;;;;;4.07;2.67;;;;;;;26.30;100.00;63618.22;5087576;28;20203;-76
2022/08/01 09:12:29;;;;;;;5.90;2.77;;;;;;;26.18;100.00;63605.19;5081749;28;20209;-76
2022/08/01 09:14:55;;;;;;;5.97;2.47;;;;;;;26.40;100.00;63623.88;5086470;28;20220;-74
2022/08/01 09:17:23;;;;;;;3.43;2.33;;;;;;;26.59;100.00;63649.75;5082137;28;20572;-76
2022/08/01 09:19:53;;;;;;;3.20;2.37;;;;;;;26.99;100.00;63690.66;5086945;28;20195;-75
2022/08/01 09:22:22;;;;;;;3.23;2.60;;;;;;;27.18;100.00;63713.94;5071158;28;20210;-74
2022/08/01 09:25:03;;;;;;;4.03;2.50;;;;;;;27.26;100.00;63722.09;5070819;28;20223;-75
2022/08/01 09:27:31;;;;;;;5.23;2.30;;;;;;;27.23;100.00;63719.38;5074853;28;21588;-75
2022/08/01 09:30:10;;;;;;;3.30;2.50;;;;;;;26.76;100.00;63668.28;5080489;28;20191;-77
2022/08/01 09:32:37;;;;;;;4.23;2.50;;;;;;;26.56;100.00;63647.03;5072507;28;20192;-75
2022/08/01 09:35:24;;;;;;;4.07;2.50;;;;;;;26.41;100.00;63627.56;5074979;28;20235;-76
2022/08/01 09:37:51;;;;;;;7.50;2.47;;;;;;;26.60;100.00;63648.75;5063146;28;20275;-74
2022/08/01 09:40:20;;;;;;;5.13;2.20;;;;;;;26.49;100.00;63639.44;5075018;28;20207;-75
2022/08/01 09:42:51;;;;;;;6.70;2.77;;;;;;;26.90;100.00;63683.50;5074958;28;20220;-75
2022/08/01 09:45:33;;;;;;;4.23;2.30;;;;;;;25.94;100.00;63579.63;5075528;28;20200;-77
2022/08/01 09:48:07;;;;;;;4.60;2.20;;;;;;;26.78;100.00;63670.44;5074214;28;20279;-73
2022/08/01 09:50:41;;;;;;;2.83;2.53;;;;;;;27.10;100.00;63702.09;5075218;28;20257;-75
2022/08/01 09:53:08;;;;;;;5.23;2.60;;;;;;;27.26;100.00;63722.66;5082961;28;20223;-77
2022/08/01 09:55:39;;;;;;;3.20;2.10;;;;;;;27.61;100.00;63760.19;5094310;28;20779;-75
2022/08/01 09:58:06;;;;;;;2.53;2.20;;;;;;;27.50;100.00;63748.25;5086435;28;20200;-75
2022/08/01 10:00:34;;;;;;;4.20;2.40;;;;;;;27.76;100.00;63776.00;5076190;28;20203;-77
2022/08/01 10:03:20;;;;;;;6.50;2.50;;;;;;;27.93;100.00;63797.13;5094833;28;20196;-77
2022/08/01 10:05:48;;;;;;;3.47;2.60;;;;;;;27.68;100.00;63767.28;5084315;28;20192;-77
2022/08/01 10:08:16;;;;;;;9.40;2.60;;;;;;;28.33;100.00;63838.59;5074562;28;20200;-75
2022/08/01 10:11:08;;;;;;;5.00;2.50;;;;;;;28.36;100.00;63841.31;5064027;28;20575;-75
2022/08/01 10:13:36;;;;;;;5.33;2.33;;;;;;;28.56;100.00;63863.13;5080908;28;20187;-76
2022/08/01 10:16:06;;;;;;;6.83;2.60;;;;;;;29.06;100.00;63920.22;5081327;28;20235;-75
2022/08/01 10:18:35;;;;;;;5.30;2.50;;;;;;;29.38;100.00;63948.78;5062434;28;20230;-76
2022/08/01 10:21:04;;;;;;;2.80;2.50;;;;;;;28.97;100.00;63907.25;5073456;28;20291;-77
2022/08/01 10:23:38;;;;;;;3.70;2.77;;;;;;;28.04;100.00;63812.28;5074570;28;20217;-75
2022/08/01 10:26:09;;;;;;;5.77;3.03;;;;;;;27.78;100.00;63778.72;5078352;28;20204;-74
2022/08/01 10:28:37;;;;;;;6.73;2.90;;;;;;;27.92;100.00;63793.94;5075173;28;20220;-75
2022/08/01 10:31:05;;;;;;;3.83;2.90;;;;;;;28.34;100.00;63837.06;5074261;28;20239;-75
2022/08/01 10:33:35;;;;;;;2.50;2.30;;;;;;;27.90;100.00;63791.22;5092898;28;20230;-75
2022/08/01 10:36:03;;;;;;;4.60;2.43;;;;;;;28.09;100.00;63814.56;5093640;28;20223;-76
2022/08/01 10:38:30;;;;;;;3.03;2.73;;;;;;;28.72;100.00;63880.56;5092681;28;20207;-75
2022/08/01 10:40:58;;;;;;;3.50;2.67;;;;;;;28.29;100.00;63833.72;5091715;28;20195;-77
2022/08/01 10:43:27;;;;;;;2.60;2.40;;;;;;;29.07;100.00;63916.06;5068056;28;20686;-76
2022/08/01 10:45:55;;;;;;;4.00;2.20;;;;;;;28.69;100.00;63877.28;5079689;28;20266;-76
2022/08/01 10:48:28;;;;;;;2.33;2.07;;;;;;;27.71;100.00;63771.09;5093993;28;20199;-76
2022/08/01 10:50:58;;;;;;;6.27;2.60;;;;;;;28.10;100.00;63813.00;5093716;28;20199;-75
2022/08/01 10:53:27;;;;;;;5.13;2.43;;;;;;;27.17;100.00;63712.84;5093573;28;20208;-74
2022/08/01 10:56:00;;;;;;;2.80;2.50;;;;;;;27.36;100.00;63733.00;5093893;28;20227;-76
2022/08/01 10:58:31;;;;;;;4.37;2.70;;;;;;;27.35;100.00;63732.47;5093596;28;20737;-76
2022/08/01 11:01:20;;;;;;;3.73;2.30;;;;;;;27.72;100.00;63771.63;5093915;28;20196;-76
2022/08/01 11:04:08;;;;;;;5.43;2.60;;;;;;;28.42;100.00;63848.41;5073680;28;20192;-76
2022/08/01 11:06:42;;;;;;;3.80;2.50;;;;;;;28.36;100.00;63841.31;5073811;28;20239;-75
2022/08/01 11:09:32;;;;;;;4.87;2.27;;;;;;;29.08;100.00;63919.78;5073330;28;20696;-74
2022/08/01 11:12:04;;;;;;;3.80;2.50;;;;;;;29.17;100.00;63927.00;5069117;28;20188;-77
2022/08/01 11:14:33;;;;;;;3.77;2.60;;;;;;;29.05;100.00;63911.28;5073233;28;20226;-76
2022/08/01 11:17:31;;;;;;;6.20;2.60;;;;;;;29.58;100.00;63973.22;5080867;28;20220;-77
2022/08/01 11:20:09;;;;;;;4.17;2.40;;;;;;;29.48;100.00;63964.94;5092909;28;20195;-76
2022/08/01 11:23:24;;;;;;;7.57;2.70;;;;;;;29.51;100.00;63960.31;5092391;28;20561;-78
2022/08/01 11:26:13;;;;;;;5.57;2.70;;;;;;;29.46;100.00;63955.41;5091734;28;20204;-77
2022/08/01 11:28:40;;;;;;;2.67;2.47;;;;;;;29.83;100.00;64000.47;5088076;28;20197;-76
2022/08/01 11:31:32;;;;;;;4.73;2.63;;;;;;;29.59;100.00;63974.28;5089745;28;20228;-75
2022/08/01 11:34:01;;;;;;;3.07;2.50;;;;;;;29.79;100.00;63999.28;5091000;28;20196;-76
2022/08/01 11:36:28;;;;;;;4.33;2.80;;;;;;;29.84;100.00;64001.56;5092147;28;20223;-76
2022/08/01 11:39:22;;;;;;;5.40;2.60;;;;;;;29.83;100.00;63997.84;5090464;28;20198;-80
2022/08/01 11:41:50;;;;;;;8.13;2.80;;;;;;;29.44;100.00;63958.47;5091989;28;20203;-75